PWSweather.com
Personal Weather Stations
Station Observations
ROSEGARDEN
Rose Garden, Brentwood, CA 94513

Rose GardenBrentwood, CA 94513

Lat: 37.967503, Lon: -121.721004

Elevation: 85

Station Type: La Crosse 2813

High Low Average
Temperature 75.4°F24.1°C 38.7°F3.7°C 53.4°F11.9°C
Dew Point 40.5°F4.7°C 27.8°F-2.3°C 34.0°F1.1°C
Winds 5.0 mph 8.0 kmh Calm Calm 2.0 mph S3.2 kmh S
Wind Gusts 13.0 mph20.9 kmh -- 3.0 mph4.8 kmh
Humidity 75% 26% 51%
Pressure 30.17 in1021.7 mb 30.04 in1017.3 mb -
Precipitation 0.00 in0.0 mm - -
Hour Temp Dew Point Humidity Winds Wind Gusts Pressure Precip Precip Rate Daily Precip Total
12:04 AM 44.8°F7.1°C 30.1°F-1.1°C 56% 1.4 mph SW2.3 kmh SW 1.8 mph2.9 kmh 30.16 in1021.3 mb 0.00 in0.0 mm 0.00 in/hr0.0 mm/hr 0.00 in0.0 mm
12:09 AM 44.6°F7.0°C 29.4°F-1.4°C 55% 1.4 mph WSW2.3 kmh WSW 2.0 mph3.2 kmh 30.16 in1021.3 mb 0.00 in0.0 mm 0.00 in/hr0.0 mm/hr 0.00 in0.0 mm
12:14 AM 44.3°F6.8°C 29.5°F-1.4°C 56% 1.7 mph SW2.7 kmh SW 2.5 mph4.0 kmh 30.16 in1021.3 mb 0.00 in0.0 mm 0.00 in/hr0.0 mm/hr 0.00 in0.0 mm
12:19 AM 44.3°F6.8°C 30.0°F-1.1°C 57% 1.3 mph SW2.1 kmh SW 2.5 mph4.0 kmh 30.16 in1021.3 mb 0.00 in0.0 mm 0.00 in/hr0.0 mm/hr 0.00 in0.0 mm
12:24 AM 44.1°F6.7°C 29.8°F-1.2°C 57% 1.0 mph WSW1.6 kmh WSW 2.2 mph3.5 kmh 30.17 in1021.7 mb 0.00 in0.0 mm 0.00 in/hr0.0 mm/hr 0.00 in0.0 mm
12:30 AM 43.9°F6.6°C 29.6°F-1.3°C 57% 0.4 mph WSW0.6 kmh WSW 1.8 mph2.9 kmh 30.17 in1021.7 mb 0.00 in0.0 mm 0.00 in/hr0.0 mm/hr 0.00 in0.0 mm
12:35 AM 43.7°F6.5°C 31.6°F-0.2°C 62% 0.8 mph SW1.3 kmh SW 1.3 mph2.1 kmh 30.16 in1021.3 mb 0.00 in0.0 mm 0.00 in/hr0.0 mm/hr 0.00 in0.0 mm
12:40 AM 43.9°F6.6°C 30.5°F-0.8°C 59% 1.1 mph SW1.8 kmh SW 1.3 mph2.1 kmh 30.17 in1021.7 mb 0.00 in0.0 mm 0.00 in/hr0.0 mm/hr 0.00 in0.0 mm
12:45 AM 43.6°F6.4°C 29.7°F-1.3°C 58% 1.1 mph SW1.8 kmh SW 1.3 mph2.1 kmh 30.16 in1021.3 mb 0.00 in0.0 mm 0.00 in/hr0.0 mm/hr 0.00 in0.0 mm
12:50 AM 43.2°F6.2°C 29.3°F-1.5°C 58% 0.4 mph SW0.6 kmh SW 1.3 mph2.1 kmh 30.16 in1021.3 mb 0.00 in0.0 mm 0.00 in/hr0.0 mm/hr 0.00 in0.0 mm
12:55 AM 42.8°F6.0°C 29.0°F-1.7°C 58% Calm Calm 1.1 mph1.8 kmh 30.16 in1021.3 mb 0.00 in0.0 mm 0.00 in/hr0.0 mm/hr 0.00 in0.0 mm
01:00 AM 42.7°F5.9°C 29.3°F-1.5°C 59% 1.0 mph WSW1.6 kmh WSW 1.1 mph1.8 kmh 30.17 in1021.7 mb 0.00 in0.0 mm 0.00 in/hr0.0 mm/hr 0.00 in0.0 mm
01:05 AM 42.5°F5.8°C 29.2°F-1.6°C 59% 0.8 mph WSW1.3 kmh WSW 1.3 mph2.1 kmh 30.17 in1021.7 mb 0.00 in0.0 mm 0.00 in/hr0.0 mm/hr 0.00 in0.0 mm
01:10 AM 42.5°F5.8°C 29.5°F-1.4°C 60% 0.3 mph SW0.5 kmh SW 1.3 mph2.1 kmh 30.16 in1021.3 mb 0.00 in0.0 mm 0.00 in/hr0.0 mm/hr 0.00 in0.0 mm
01:15 AM 42.3°F5.7°C 29.4°F-1.4°C 60% Calm Calm 0.7 mph1.1 kmh 30.16 in1021.3 mb 0.00 in0.0 mm 0.00 in/hr0.0 mm/hr 0.00 in0.0 mm
01:20 AM 42.3°F5.7°C 29.4°F-1.4°C 60% Calm Calm -- 30.16 in1021.3 mb 0.00 in0.0 mm 0.00 in/hr0.0 mm/hr 0.00 in0.0 mm
01:25 AM 42.1°F5.6°C 29.6°F-1.3°C 61% Calm Calm -- 30.16 in1021.3 mb 0.00 in0.0 mm 0.00 in/hr0.0 mm/hr 0.00 in0.0 mm
01:30 AM 42.3°F5.7°C 30.2°F-1.0°C 62% 0.3 mph SW0.5 kmh SW 0.4 mph0.6 kmh 30.16 in1021.3 mb 0.00 in0.0 mm 0.00 in/hr0.0 mm/hr 0.00 in0.0 mm
01:35 AM 42.5°F5.8°C 30.7°F-0.7°C 63% 0.8 mph SSW1.3 kmh SSW 1.1 mph1.8 kmh 30.16 in1021.3 mb 0.00 in0.0 mm 0.00 in/hr0.0 mm/hr 0.00 in0.0 mm
01:40 AM 42.5°F5.8°C 30.7°F-0.7°C 63% 1.2 mph SW1.9 kmh SW 1.8 mph2.9 kmh 30.16 in1021.3 mb 0.00 in0.0 mm 0.00 in/hr0.0 mm/hr 0.00 in0.0 mm
01:45 AM 42.3°F5.7°C 30.2°F-1.0°C 62% 1.0 mph SW1.6 kmh SW 1.8 mph2.9 kmh 30.16 in1021.3 mb 0.00 in0.0 mm 0.00 in/hr0.0 mm/hr 0.00 in0.0 mm
01:50 AM 42.1°F5.6°C 30.0°F-1.1°C 62% 1.6 mph SW2.6 kmh SW 1.8 mph2.9 kmh 30.16 in1021.3 mb 0.00 in0.0 mm 0.00 in/hr0.0 mm/hr 0.00 in0.0 mm
01:55 AM 41.9°F5.5°C 30.3°F-0.9°C 63% 1.9 mph SW3.1 kmh SW 2.2 mph3.5 kmh 30.16 in1021.3 mb 0.00 in0.0 mm 0.00 in/hr0.0 mm/hr 0.00 in0.0 mm
02:00 AM 41.8°F5.4°C 29.3°F-1.5°C 61% 1.4 mph SW2.3 kmh SW 2.2 mph3.5 kmh 30.16 in1021.3 mb 0.00 in0.0 mm 0.00 in/hr0.0 mm/hr 0.00 in0.0 mm
02:05 AM 41.6°F5.3°C 29.5°F-1.4°C 62% 0.7 mph SW1.1 kmh SW 2.0 mph3.2 kmh 30.15 in1021.0 mb 0.00 in0.0 mm 0.00 in/hr0.0 mm/hr 0.00 in0.0 mm
02:10 AM 41.6°F5.3°C 29.9°F-1.2°C 63% 1.0 mph SSW1.6 kmh SSW 1.8 mph2.9 kmh 30.15 in1021.0 mb 0.00 in0.0 mm 0.00 in/hr0.0 mm/hr 0.00 in0.0 mm
02:15 AM 41.6°F5.3°C 29.5°F-1.4°C 62% 1.5 mph SW2.4 kmh SW 1.8 mph2.9 kmh 30.15 in1021.0 mb 0.00 in0.0 mm 0.00 in/hr0.0 mm/hr 0.00 in0.0 mm
02:20 AM 41.6°F5.3°C 29.2°F-1.6°C 61% 1.5 mph SW2.4 kmh SW 2.2 mph3.5 kmh 30.15 in1021.0 mb 0.00 in0.0 mm 0.00 in/hr0.0 mm/hr 0.00 in0.0 mm
02:25 AM 41.6°F5.3°C 29.9°F-1.2°C 63% 1.1 mph SW1.8 kmh SW 2.2 mph3.5 kmh 30.14 in1020.7 mb 0.00 in0.0 mm 0.00 in/hr0.0 mm/hr 0.00 in0.0 mm
02:30 AM 41.8°F5.4°C 29.7°F-1.3°C 62% 0.8 mph SW1.3 kmh SW 1.8 mph2.9 kmh 30.14 in1020.7 mb 0.00 in0.0 mm 0.00 in/hr0.0 mm/hr 0.00 in0.0 mm
02:35 AM 41.8°F5.4°C 29.3°F-1.5°C 61% 0.5 mph SSW0.8 kmh SSW 1.8 mph2.9 kmh 30.14 in1020.7 mb 0.00 in0.0 mm 0.00 in/hr0.0 mm/hr 0.00 in0.0 mm
02:39 AM 41.6°F5.3°C 29.2°F-1.6°C 61% 0.3 mph SSW0.5 kmh SSW 1.8 mph2.9 kmh 30.14 in1020.7 mb 0.00 in0.0 mm 0.00 in/hr0.0 mm/hr 0.00 in0.0 mm
02:44 AM 41.6°F5.3°C 28.7°F-1.8°C 60% 0.2 mph S0.3 kmh S 0.7 mph1.1 kmh 30.14 in1020.7 mb 0.00 in0.0 mm 0.00 in/hr0.0 mm/hr 0.00 in0.0 mm
02:49 AM 41.4°F5.2°C 29.0°F-1.7°C 61% Calm Calm 0.7 mph1.1 kmh 30.14 in1020.7 mb 0.00 in0.0 mm 0.00 in/hr0.0 mm/hr 0.00 in0.0 mm
02:54 AM 41.4°F5.2°C 29.0°F-1.7°C 61% Calm Calm -- 30.14 in1020.7 mb 0.00 in0.0 mm 0.00 in/hr0.0 mm/hr 0.00 in0.0 mm
02:59 AM 41.0°F5.0°C 28.6°F-1.9°C 61% 0.6 mph NE1.0 kmh NE 1.1 mph1.8 kmh 30.14 in1020.7 mb 0.00 in0.0 mm 0.00 in/hr0.0 mm/hr 0.00 in0.0 mm
03:04 AM 40.9°F4.9°C 28.8°F-1.8°C 62% 0.7 mph E1.1 kmh E 1.1 mph1.8 kmh 30.14 in1020.7 mb 0.00 in0.0 mm 0.00 in/hr0.0 mm/hr 0.00 in0.0 mm
03:09 AM 40.7°F4.8°C 28.6°F-1.9°C 62% Calm Calm 0.7 mph1.1 kmh 30.14 in1020.7 mb 0.00 in0.0 mm 0.00 in/hr0.0 mm/hr 0.00 in0.0 mm
03:14 AM 40.7°F4.8°C 29.1°F-1.6°C 63% Calm Calm 0.4 mph0.6 kmh 30.14 in1020.7 mb 0.00 in0.0 mm 0.00 in/hr0.0 mm/hr 0.00 in0.0 mm
03:19 AM 40.5°F4.7°C 28.9°F-1.7°C 63% Calm Calm 0.4 mph0.6 kmh 30.13 in1020.3 mb 0.00 in0.0 mm 0.00 in/hr0.0 mm/hr 0.00 in0.0 mm
03:24 AM 40.3°F4.6°C 28.7°F-1.8°C 63% 0.3 mph WSW0.5 kmh WSW 0.4 mph0.6 kmh 30.14 in1020.7 mb 0.00 in0.0 mm 0.00 in/hr0.0 mm/hr 0.00 in0.0 mm
03:29 AM 40.1°F4.5°C 28.9°F-1.7°C 64% Calm Calm 0.4 mph0.6 kmh 30.13 in1020.3 mb 0.00 in0.0 mm 0.00 in/hr0.0 mm/hr 0.00 in0.0 mm
03:34 AM 40.1°F4.5°C 28.9°F-1.7°C 64% Calm Calm -- 30.13 in1020.3 mb 0.00 in0.0 mm 0.00 in/hr0.0 mm/hr 0.00 in0.0 mm
03:39 AM 40.0°F4.4°C 29.1°F-1.6°C 65% Calm Calm -- 30.13 in1020.3 mb 0.00 in0.0 mm 0.00 in/hr0.0 mm/hr 0.00 in0.0 mm
03:44 AM 40.0°F4.4°C 28.7°F-1.8°C 64% 0.4 mph SW0.6 kmh SW 0.4 mph0.6 kmh 30.13 in1020.3 mb 0.00 in0.0 mm 0.00 in/hr0.0 mm/hr 0.00 in0.0 mm
03:49 AM 40.0°F4.4°C 28.4°F-2.0°C 63% 0.2 mph WSW0.3 kmh WSW 0.4 mph0.6 kmh 30.13 in1020.3 mb 0.00 in0.0 mm 0.00 in/hr0.0 mm/hr 0.00 in0.0 mm
03:54 AM 39.8°F4.3°C 28.2°F-2.1°C 63% 0.2 mph W0.3 kmh W 0.4 mph0.6 kmh 30.13 in1020.3 mb 0.00 in0.0 mm 0.00 in/hr0.0 mm/hr 0.00 in0.0 mm
03:59 AM 39.6°F4.2°C 28.0°F-2.2°C 63% Calm Calm 0.4 mph0.6 kmh 30.14 in1020.7 mb 0.00 in0.0 mm 0.00 in/hr0.0 mm/hr 0.00 in0.0 mm
04:04 AM 39.4°F4.1°C 27.8°F-2.3°C 63% 0.2 mph WNW0.3 kmh WNW 0.2 mph0.3 kmh 30.14 in1020.7 mb 0.00 in0.0 mm 0.00 in/hr0.0 mm/hr 0.00 in0.0 mm
04:09 AM 39.2°F4.0°C 28.0°F-2.2°C 64% 0.2 mph WNW0.3 kmh WNW 0.2 mph0.3 kmh 30.14 in1020.7 mb 0.00 in0.0 mm 0.00 in/hr0.0 mm/hr 0.00 in0.0 mm
04:14 AM 39.2°F4.0°C 28.0°F-2.2°C 64% Calm Calm 0.4 mph0.6 kmh 30.14 in1020.7 mb 0.00 in0.0 mm 0.00 in/hr0.0 mm/hr 0.00 in0.0 mm
04:19 AM 39.2°F4.0°C 28.4°F-2.0°C 65% 0.2 mph NNW0.3 kmh NNW 0.4 mph0.6 kmh 30.13 in1020.3 mb 0.00 in0.0 mm 0.00 in/hr0.0 mm/hr 0.00 in0.0 mm
04:24 AM 39.2°F4.0°C 28.4°F-2.0°C 65% 0.5 mph WNW0.8 kmh WNW 0.7 mph1.1 kmh 30.13 in1020.3 mb 0.00 in0.0 mm 0.00 in/hr0.0 mm/hr 0.00 in0.0 mm
04:29 AM 39.2°F4.0°C 28.4°F-2.0°C 65% Calm Calm 1.1 mph1.8 kmh 30.13 in1020.3 mb 0.00 in0.0 mm 0.00 in/hr0.0 mm/hr 0.00 in0.0 mm
04:34 AM 39.4°F4.1°C 28.9°F-1.7°C 66% 0.6 mph WNW1.0 kmh WNW 1.3 mph2.1 kmh 30.14 in1020.7 mb 0.00 in0.0 mm 0.00 in/hr0.0 mm/hr 0.00 in0.0 mm
04:39 AM 39.6°F4.2°C 29.4°F-1.4°C 67% 0.6 mph NW1.0 kmh NW 1.3 mph2.1 kmh 30.14 in1020.7 mb 0.00 in0.0 mm 0.00 in/hr0.0 mm/hr 0.00 in0.0 mm
04:44 AM 40.0°F4.4°C 29.8°F-1.2°C 67% 0.4 mph WNW0.6 kmh WNW 1.3 mph2.1 kmh 30.14 in1020.7 mb 0.00 in0.0 mm 0.00 in/hr0.0 mm/hr 0.00 in0.0 mm
04:49 AM 40.0°F4.4°C 29.8°F-1.2°C 67% 0.4 mph WSW0.6 kmh WSW 0.9 mph1.4 kmh 30.14 in1020.7 mb 0.00 in0.0 mm 0.00 in/hr0.0 mm/hr 0.00 in0.0 mm
04:54 AM 39.8°F4.3°C 29.6°F-1.3°C 67% 1.0 mph WSW1.6 kmh WSW 1.1 mph1.8 kmh 30.13 in1020.3 mb 0.00 in0.0 mm 0.00 in/hr0.0 mm/hr 0.00 in0.0 mm
04:59 AM 39.6°F4.2°C 29.4°F-1.4°C 67% 0.6 mph WSW1.0 kmh WSW 1.1 mph1.8 kmh 30.13 in1020.3 mb 0.00 in0.0 mm 0.00 in/hr0.0 mm/hr 0.00 in0.0 mm
05:04 AM 39.4°F4.1°C 29.3°F-1.5°C 67% 0.5 mph WSW0.8 kmh WSW 1.1 mph1.8 kmh 30.13 in1020.3 mb 0.00 in0.0 mm 0.00 in/hr0.0 mm/hr 0.00 in0.0 mm
05:09 AM 39.2°F4.0°C 29.5°F-1.4°C 68% 0.5 mph WSW0.8 kmh WSW 1.1 mph1.8 kmh 30.13 in1020.3 mb 0.00 in0.0 mm 0.00 in/hr0.0 mm/hr 0.00 in0.0 mm
05:14 AM 39.1°F3.9°C 29.7°F-1.3°C 69% 0.4 mph WSW0.6 kmh WSW 1.1 mph1.8 kmh 30.13 in1020.3 mb 0.00 in0.0 mm 0.00 in/hr0.0 mm/hr 0.00 in0.0 mm
05:19 AM 38.9°F3.8°C 29.5°F-1.4°C 69% 0.8 mph WSW1.3 kmh WSW 1.1 mph1.8 kmh 30.13 in1020.3 mb 0.00 in0.0 mm 0.00 in/hr0.0 mm/hr 0.00 in0.0 mm
05:25 AM 38.9°F3.8°C 29.9°F-1.2°C 70% 0.6 mph WSW1.0 kmh WSW 1.1 mph1.8 kmh 30.13 in1020.3 mb 0.00 in0.0 mm 0.00 in/hr0.0 mm/hr 0.00 in0.0 mm
05:30 AM 38.9°F3.8°C 30.2°F-1.0°C 71% 0.4 mph WSW0.6 kmh WSW 0.9 mph1.4 kmh 30.13 in1020.3 mb 0.00 in0.0 mm 0.00 in/hr0.0 mm/hr 0.00 in0.0 mm
05:35 AM 38.9°F3.8°C 30.2°F-1.0°C 71% 0.6 mph WSW1.0 kmh WSW 0.9 mph1.4 kmh 30.13 in1020.3 mb 0.00 in0.0 mm 0.00 in/hr0.0 mm/hr 0.00 in0.0 mm
05:40 AM 38.7°F3.7°C 30.4°F-0.9°C 72% 0.2 mph WSW0.3 kmh WSW 0.9 mph1.4 kmh 30.13 in1020.3 mb 0.00 in0.0 mm 0.00 in/hr0.0 mm/hr 0.00 in0.0 mm
05:45 AM 39.1°F3.9°C 30.8°F-0.7°C 72% Calm Calm 0.7 mph1.1 kmh 30.13 in1020.3 mb 0.00 in0.0 mm 0.00 in/hr0.0 mm/hr 0.00 in0.0 mm
05:50 AM 39.1°F3.9°C 30.4°F-0.9°C 71% 0.4 mph WSW0.6 kmh WSW 0.7 mph1.1 kmh 30.13 in1020.3 mb 0.00 in0.0 mm 0.00 in/hr0.0 mm/hr 0.00 in0.0 mm
05:55 AM 38.9°F3.8°C 30.2°F-1.0°C 71% 1.0 mph WSW1.6 kmh WSW 1.1 mph1.8 kmh 30.13 in1020.3 mb 0.00 in0.0 mm 0.00 in/hr0.0 mm/hr 0.00 in0.0 mm
06:00 AM 38.7°F3.7°C 30.1°F-1.1°C 71% 1.1 mph WSW1.8 kmh WSW 1.3 mph2.1 kmh 30.13 in1020.3 mb 0.00 in0.0 mm 0.00 in/hr0.0 mm/hr 0.00 in0.0 mm
06:05 AM 38.9°F3.8°C 31.0°F-0.6°C 73% 0.6 mph WSW1.0 kmh WSW 1.3 mph2.1 kmh 30.13 in1020.3 mb 0.00 in0.0 mm 0.00 in/hr0.0 mm/hr 0.00 in0.0 mm
06:10 AM 39.1°F3.9°C 31.2°F-0.4°C 73% 0.3 mph SSW0.5 kmh SSW 1.1 mph1.8 kmh 30.13 in1020.3 mb 0.00 in0.0 mm 0.00 in/hr0.0 mm/hr 0.00 in0.0 mm
06:15 AM 39.1°F3.9°C 30.8°F-0.7°C 72% 0.4 mph SSW0.6 kmh SSW 0.7 mph1.1 kmh 30.13 in1020.3 mb 0.00 in0.0 mm 0.00 in/hr0.0 mm/hr 0.00 in0.0 mm
06:20 AM 39.1°F3.9°C 30.4°F-0.9°C 71% 0.2 mph SW0.3 kmh SW 0.4 mph0.6 kmh 30.13 in1020.3 mb 0.00 in0.0 mm 0.00 in/hr0.0 mm/hr 0.00 in0.0 mm
06:25 AM 39.1°F3.9°C 30.4°F-0.9°C 71% Calm Calm 0.4 mph0.6 kmh 30.13 in1020.3 mb 0.00 in0.0 mm 0.00 in/hr0.0 mm/hr 0.00 in0.0 mm
06:30 AM 39.2°F4.0°C 30.6°F-0.8°C 71% Calm Calm -- 30.14 in1020.7 mb 0.00 in0.0 mm 0.00 in/hr0.0 mm/hr 0.00 in0.0 mm
06:35 AM 39.4°F4.1°C 31.2°F-0.4°C 72% Calm Calm -- 30.14 in1020.7 mb 0.00 in0.0 mm 0.00 in/hr0.0 mm/hr 0.00 in0.0 mm
06:39 AM 40.0°F4.4°C 31.6°F-0.2°C 72% Calm Calm -- 30.13 in1020.3 mb 0.00 in0.0 mm 0.00 in/hr0.0 mm/hr 0.00 in0.0 mm
06:44 AM 40.3°F4.6°C 31.7°F-0.2°C 71% Calm Calm -- 30.14 in1020.7 mb 0.00 in0.0 mm 0.00 in/hr0.0 mm/hr 0.00 in0.0 mm
06:49 AM 40.7°F4.8°C 32.1°F0.1°C 71% Calm Calm -- 30.14 in1020.7 mb 0.00 in0.0 mm 0.00 in/hr0.0 mm/hr 0.00 in0.0 mm
06:54 AM 41.0°F5.0°C 32.4°F0.2°C 71% Calm Calm -- 30.14 in1020.7 mb 0.00 in0.0 mm 0.00 in/hr0.0 mm/hr 0.00 in0.0 mm
06:59 AM 41.6°F5.3°C 33.0°F0.6°C 71% 0.3 mph NW0.5 kmh NW 0.4 mph0.6 kmh 30.14 in1020.7 mb 0.00 in0.0 mm 0.00 in/hr0.0 mm/hr 0.00 in0.0 mm
07:04 AM 42.3°F5.7°C 34.3°F1.3°C 73% 0.3 mph NNW0.5 kmh NNW 0.7 mph1.1 kmh 30.14 in1020.7 mb 0.00 in0.0 mm 0.00 in/hr0.0 mm/hr 0.00 in0.0 mm
07:09 AM 43.0°F6.1°C 35.0°F1.7°C 73% 0.5 mph N0.8 kmh N 0.7 mph1.1 kmh 30.14 in1020.7 mb 0.00 in0.0 mm 0.00 in/hr0.0 mm/hr 0.00 in0.0 mm
07:14 AM 44.1°F6.7°C 36.6°F2.6°C 75% 1.0 mph NNE1.6 kmh NNE 1.3 mph2.1 kmh 30.14 in1020.7 mb 0.00 in0.0 mm 0.00 in/hr0.0 mm/hr 0.00 in0.0 mm
07:19 AM 45.0°F7.2°C 37.2°F2.9°C 74% 1.1 mph N1.8 kmh N 2.5 mph4.0 kmh 30.14 in1020.7 mb 0.00 in0.0 mm 0.00 in/hr0.0 mm/hr 0.00 in0.0 mm
07:24 AM 45.9°F7.7°C 38.4°F3.6°C 75% 1.1 mph N1.8 kmh N 2.5 mph4.0 kmh 30.14 in1020.7 mb 0.00 in0.0 mm 0.00 in/hr0.0 mm/hr 0.00 in0.0 mm
07:29 AM 47.0°F8.3°C 39.4°F4.1°C 75% 1.4 mph N2.3 kmh N 2.9 mph4.7 kmh 30.14 in1020.7 mb 0.00 in0.0 mm 0.00 in/hr0.0 mm/hr 0.00 in0.0 mm
07:34 AM 47.7°F8.7°C 39.8°F4.3°C 74% 1.0 mph NNW1.6 kmh NNW 2.9 mph4.7 kmh 30.14 in1020.7 mb 0.00 in0.0 mm 0.00 in/hr0.0 mm/hr 0.00 in0.0 mm
07:39 AM 48.2°F9.0°C 39.6°F4.2°C 72% 1.6 mph N2.6 kmh N 2.0 mph3.2 kmh 30.14 in1020.7 mb 0.00 in0.0 mm 0.00 in/hr0.0 mm/hr 0.00 in0.0 mm
07:44 AM 48.8°F9.3°C 39.8°F4.3°C 71% 2.0 mph N3.2 kmh N 3.8 mph6.1 kmh 30.14 in1020.7 mb 0.00 in0.0 mm 0.00 in/hr0.0 mm/hr 0.00 in0.0 mm
07:49 AM 49.3°F9.6°C 40.0°F4.4°C 70% 1.9 mph N3.1 kmh N 3.8 mph6.1 kmh 30.14 in1020.7 mb 0.00 in0.0 mm 0.00 in/hr0.0 mm/hr 0.00 in0.0 mm
07:54 AM 49.9°F9.9°C 40.5°F4.7°C 70% 2.1 mph NE3.4 kmh NE 3.6 mph5.8 kmh 30.14 in1020.7 mb 0.00 in0.0 mm 0.00 in/hr0.0 mm/hr 0.00 in0.0 mm
07:59 AM 50.0°F10.0°C 39.9°F4.4°C 68% 4.4 mph N7.1 kmh N 6.0 mph9.7 kmh 30.14 in1020.7 mb 0.00 in0.0 mm 0.00 in/hr0.0 mm/hr 0.00 in0.0 mm
08:04 AM 50.4°F10.2°C 38.6°F3.7°C 64% 3.4 mph N5.5 kmh N 6.0 mph9.7 kmh 30.14 in1020.7 mb 0.00 in0.0 mm 0.00 in/hr0.0 mm/hr 0.00 in0.0 mm
08:05 AM 50.4°F10.2°C 38.3°F3.5°C 63% 3.1 mph 5.0 kmh 6.0 mph9.7 kmh 30.14 in1020.7 mb 0.00 in0.0 mm 0.00 in/hr0.0 mm/hr 0.00 in0.0 mm
09:05 AM 54.7°F12.6°C 37.8°F3.2°C 53% 3.2 mph NNW5.1 kmh NNW 5.1 mph8.2 kmh 30.14 in1020.7 mb 0.00 in0.0 mm 0.00 in/hr0.0 mm/hr 0.00 in0.0 mm
09:10 AM 55.1°F12.8°C 37.7°F3.2°C 52% 1.9 mph N3.1 kmh N 5.1 mph8.2 kmh 30.14 in1020.7 mb 0.00 in0.0 mm 0.00 in/hr0.0 mm/hr 0.00 in0.0 mm
09:15 AM 55.3°F12.9°C 37.9°F3.3°C 52% 1.5 mph NW2.4 kmh NW 3.8 mph6.1 kmh 30.14 in1020.7 mb 0.00 in0.0 mm 0.00 in/hr0.0 mm/hr 0.00 in0.0 mm
09:20 AM 55.8°F13.2°C 38.3°F3.5°C 52% 1.9 mph NW3.1 kmh NW 3.1 mph5.0 kmh 30.14 in1020.7 mb 0.00 in0.0 mm 0.00 in/hr0.0 mm/hr 0.00 in0.0 mm
09:25 AM 56.2°F13.4°C 38.3°F3.5°C 51% 1.5 mph NW2.4 kmh NW 4.0 mph6.4 kmh 30.15 in1021.0 mb 0.00 in0.0 mm 0.00 in/hr0.0 mm/hr 0.00 in0.0 mm
09:30 AM 56.5°F13.6°C 39.1°F3.9°C 52% 2.7 mph N4.3 kmh N 4.0 mph6.4 kmh 30.15 in1021.0 mb 0.00 in0.0 mm 0.00 in/hr0.0 mm/hr 0.00 in0.0 mm
09:35 AM 57.2°F14.0°C 38.9°F3.8°C 50% 2.3 mph NNW3.7 kmh NNW 3.8 mph6.1 kmh 30.15 in1021.0 mb 0.00 in0.0 mm 0.00 in/hr0.0 mm/hr 0.00 in0.0 mm
09:40 AM 57.4°F14.1°C 37.4°F3.0°C 47% 1.9 mph NW3.1 kmh NW 5.1 mph8.2 kmh 30.14 in1020.7 mb 0.00 in0.0 mm 0.00 in/hr0.0 mm/hr 0.00 in0.0 mm
09:45 AM 57.6°F14.2°C 38.6°F3.7°C 49% 1.5 mph N2.4 kmh N 5.1 mph8.2 kmh 30.14 in1020.7 mb 0.00 in0.0 mm 0.00 in/hr0.0 mm/hr 0.00 in0.0 mm
09:50 AM 58.3°F14.6°C 38.7°F3.7°C 48% 1.6 mph NNW2.6 kmh NNW 4.3 mph6.9 kmh 30.14 in1020.7 mb 0.00 in0.0 mm 0.00 in/hr0.0 mm/hr 0.00 in0.0 mm
09:55 AM 59.0°F15.0°C 39.3°F4.1°C 48% 3.7 mph N6.0 kmh N 4.9 mph7.9 kmh 30.14 in1020.7 mb 0.00 in0.0 mm 0.00 in/hr0.0 mm/hr 0.00 in0.0 mm
10:00 AM 59.4°F15.2°C 38.5°F3.6°C 46% 2.0 mph NE3.2 kmh NE 4.9 mph7.9 kmh 30.14 in1020.7 mb 0.00 in0.0 mm 0.00 in/hr0.0 mm/hr 0.00 in0.0 mm
10:05 AM 60.1°F15.6°C 39.2°F4.0°C 46% 2.7 mph NNE4.3 kmh NNE 4.9 mph7.9 kmh 30.14 in1020.7 mb 0.00 in0.0 mm 0.00 in/hr0.0 mm/hr 0.00 in0.0 mm
10:10 AM 60.7°F15.9°C 37.9°F3.3°C 43% 2.4 mph NNW3.9 kmh NNW 4.3 mph6.9 kmh 30.14 in1020.7 mb 0.00 in0.0 mm 0.00 in/hr0.0 mm/hr 0.00 in0.0 mm
10:15 AM 61.0°F16.1°C 37.7°F3.2°C 42% 0.9 mph N1.4 kmh N 4.0 mph6.4 kmh 30.14 in1020.7 mb 0.00 in0.0 mm 0.00 in/hr0.0 mm/hr 0.00 in0.0 mm
10:20 AM 61.4°F16.3°C 38.0°F3.3°C 42% 2.1 mph NNE3.4 kmh NNE 4.0 mph6.4 kmh 30.14 in1020.7 mb 0.00 in0.0 mm 0.00 in/hr0.0 mm/hr 0.00 in0.0 mm
10:25 AM 61.7°F16.5°C 37.2°F2.9°C 40% 3.2 mph NNE5.1 kmh NNE 4.7 mph7.6 kmh 30.14 in1020.7 mb 0.00 in0.0 mm 0.00 in/hr0.0 mm/hr 0.00 in0.0 mm
10:30 AM 62.3°F16.8°C 36.9°F2.7°C 39% 1.9 mph NE3.1 kmh NE 5.4 mph8.7 kmh 30.14 in1020.7 mb 0.00 in0.0 mm 0.00 in/hr0.0 mm/hr 0.00 in0.0 mm
10:34 AM 62.8°F17.1°C 37.5°F3.1°C 39% 2.4 mph N3.9 kmh N 5.4 mph8.7 kmh 30.14 in1020.7 mb 0.00 in0.0 mm 0.00 in/hr0.0 mm/hr 0.00 in0.0 mm
10:39 AM 63.4°F17.4°C 37.2°F2.9°C 38% 3.0 mph N4.8 kmh N 5.6 mph9.0 kmh 30.13 in1020.3 mb 0.00 in0.0 mm 0.00 in/hr0.0 mm/hr 0.00 in0.0 mm
10:44 AM 63.7°F17.6°C 36.8°F2.7°C 37% 3.3 mph NE5.3 kmh NE 5.6 mph9.0 kmh 30.13 in1020.3 mb 0.00 in0.0 mm 0.00 in/hr0.0 mm/hr 0.00 in0.0 mm
10:49 AM 63.9°F17.7°C 37.0°F2.8°C 37% 1.4 mph N2.3 kmh N 5.1 mph8.2 kmh 30.13 in1020.3 mb 0.00 in0.0 mm 0.00 in/hr0.0 mm/hr 0.00 in0.0 mm
10:54 AM 63.9°F17.7°C 37.0°F2.8°C 37% 3.2 mph NNW5.1 kmh NNW 5.4 mph8.7 kmh 30.13 in1020.3 mb 0.00 in0.0 mm 0.00 in/hr0.0 mm/hr 0.00 in0.0 mm
10:59 AM 64.1°F17.8°C 37.8°F3.2°C 38% 2.3 mph N3.7 kmh N 5.4 mph8.7 kmh 30.13 in1020.3 mb 0.00 in0.0 mm 0.00 in/hr0.0 mm/hr 0.00 in0.0 mm
11:04 AM 64.3°F17.9°C 37.3°F2.9°C 37% 2.2 mph N3.5 kmh N 4.0 mph6.4 kmh 30.13 in1020.3 mb 0.00 in0.0 mm 0.00 in/hr0.0 mm/hr 0.00 in0.0 mm
11:09 AM 64.3°F17.9°C 36.5°F2.5°C 36% 4.6 mph NNE7.4 kmh NNE 6.9 mph11.1 kmh 30.13 in1020.3 mb 0.00 in0.0 mm 0.00 in/hr0.0 mm/hr 0.00 in0.0 mm
11:14 AM 64.8°F18.2°C 37.1°F2.8°C 36% 2.5 mph ESE4.0 kmh ESE 6.9 mph11.1 kmh 30.13 in1020.3 mb 0.00 in0.0 mm 0.00 in/hr0.0 mm/hr 0.00 in0.0 mm
11:19 AM 65.2°F18.4°C 35.9°F2.2°C 34% 1.5 mph ESE2.4 kmh ESE 6.5 mph10.5 kmh 30.13 in1020.3 mb 0.00 in0.0 mm 0.00 in/hr0.0 mm/hr 0.00 in0.0 mm
11:24 AM 65.7°F18.7°C 35.7°F2.1°C 33% 3.7 mph NE6.0 kmh NE 6.3 mph10.1 kmh 30.13 in1020.3 mb 0.00 in0.0 mm 0.00 in/hr0.0 mm/hr 0.00 in0.0 mm
11:29 AM 66.2°F19.0°C 36.2°F2.3°C 33% 3.5 mph NE5.6 kmh NE 6.5 mph10.5 kmh 30.13 in1020.3 mb 0.00 in0.0 mm 0.00 in/hr0.0 mm/hr 0.00 in0.0 mm
11:34 AM 66.2°F19.0°C 36.2°F2.3°C 33% 1.7 mph E2.7 kmh E 6.5 mph10.5 kmh 30.12 in1020.0 mb 0.00 in0.0 mm 0.00 in/hr0.0 mm/hr 0.00 in0.0 mm
11:39 AM 66.6°F19.2°C 36.5°F2.5°C 33% 3.1 mph ESE5.0 kmh ESE 5.1 mph8.2 kmh 30.12 in1020.0 mb 0.00 in0.0 mm 0.00 in/hr0.0 mm/hr 0.00 in0.0 mm
11:44 AM 66.8°F19.3°C 36.6°F2.6°C 33% 1.8 mph SE2.9 kmh SE 5.1 mph8.2 kmh 30.12 in1020.0 mb 0.00 in0.0 mm 0.00 in/hr0.0 mm/hr 0.00 in0.0 mm
11:49 AM 67.3°F19.6°C 37.1°F2.8°C 33% 1.5 mph E2.4 kmh E 5.1 mph8.2 kmh 30.12 in1020.0 mb 0.00 in0.0 mm 0.00 in/hr0.0 mm/hr 0.00 in0.0 mm
11:54 AM 67.9°F19.9°C 36.8°F2.7°C 32% 5.0 mph NE8.0 kmh NE 7.6 mph12.2 kmh 30.11 in1019.6 mb 0.00 in0.0 mm 0.00 in/hr0.0 mm/hr 0.00 in0.0 mm
11:59 AM 67.9°F19.9°C 36.8°F2.7°C 32% 3.4 mph NE5.5 kmh NE 7.6 mph12.2 kmh 30.11 in1019.6 mb 0.00 in0.0 mm 0.00 in/hr0.0 mm/hr 0.00 in0.0 mm
12:04 PM 68.4°F20.2°C 36.6°F2.6°C 31% 2.2 mph NE3.5 kmh NE 7.4 mph11.9 kmh 30.11 in1019.6 mb 0.00 in0.0 mm 0.00 in/hr0.0 mm/hr 0.00 in0.0 mm
12:09 PM 68.8°F20.4°C 36.8°F2.7°C 31% 3.9 mph E6.3 kmh E 4.3 mph6.9 kmh 30.11 in1019.6 mb 0.00 in0.0 mm 0.00 in/hr0.0 mm/hr 0.00 in0.0 mm
12:14 PM 68.8°F20.4°C 35.1°F1.7°C 29% 3.0 mph NNW4.8 kmh NNW 4.5 mph7.2 kmh 30.11 in1019.6 mb 0.00 in0.0 mm 0.00 in/hr0.0 mm/hr 0.00 in0.0 mm
12:19 PM 68.8°F20.4°C 36.1°F2.3°C 30% 3.4 mph WSW5.5 kmh WSW 4.7 mph7.6 kmh 30.10 in1019.3 mb 0.00 in0.0 mm 0.00 in/hr0.0 mm/hr 0.00 in0.0 mm
12:24 PM 69.1°F20.6°C 37.2°F2.9°C 31% 2.4 mph NNE3.9 kmh NNE 4.7 mph7.6 kmh 30.10 in1019.3 mb 0.00 in0.0 mm 0.00 in/hr0.0 mm/hr 0.00 in0.0 mm
12:29 PM 69.1°F20.6°C 35.5°F1.9°C 29% 4.2 mph SE6.8 kmh SE 13.0 mph20.9 kmh 30.10 in1019.3 mb 0.00 in0.0 mm 0.00 in/hr0.0 mm/hr 0.00 in0.0 mm
12:34 PM 69.1°F20.6°C 36.5°F2.5°C 30% 2.9 mph SE4.7 kmh SE 13.0 mph20.9 kmh 30.10 in1019.3 mb 0.00 in0.0 mm 0.00 in/hr0.0 mm/hr 0.00 in0.0 mm
12:39 PM 69.3°F20.7°C 37.4°F3.0°C 31% 3.0 mph NE4.8 kmh NE 7.2 mph11.6 kmh 30.10 in1019.3 mb 0.00 in0.0 mm 0.00 in/hr0.0 mm/hr 0.00 in0.0 mm
12:45 PM 69.8°F21.0°C 37.1°F2.8°C 30% 3.0 mph E4.8 kmh E 7.2 mph11.6 kmh 30.09 in1019.0 mb 0.00 in0.0 mm 0.00 in/hr0.0 mm/hr 0.00 in0.0 mm
12:50 PM 70.0°F21.1°C 37.3°F2.9°C 30% 3.0 mph NE4.8 kmh NE 4.7 mph7.6 kmh 30.09 in1019.0 mb 0.00 in0.0 mm 0.00 in/hr0.0 mm/hr 0.00 in0.0 mm
12:55 PM 70.2°F21.2°C 37.5°F3.1°C 30% 2.1 mph NE3.4 kmh NE 5.4 mph8.7 kmh 30.09 in1019.0 mb 0.00 in0.0 mm 0.00 in/hr0.0 mm/hr 0.00 in0.0 mm
01:00 PM 70.2°F21.2°C 37.5°F3.1°C 30% 1.0 mph N1.6 kmh N 5.4 mph8.7 kmh 30.09 in1019.0 mb 0.00 in0.0 mm 0.00 in/hr0.0 mm/hr 0.00 in0.0 mm
01:05 PM 70.6°F21.4°C 37.7°F3.2°C 30% 0.4 mph SSE0.6 kmh SSE 2.9 mph4.7 kmh 30.09 in1019.0 mb 0.00 in0.0 mm 0.00 in/hr0.0 mm/hr 0.00 in0.0 mm
01:10 PM 71.5°F21.9°C 37.5°F3.1°C 29% 2.3 mph ENE3.7 kmh ENE 3.8 mph6.1 kmh 30.09 in1019.0 mb 0.00 in0.0 mm 0.00 in/hr0.0 mm/hr 0.00 in0.0 mm
01:15 PM 71.6°F22.0°C 37.7°F3.2°C 29% 4.3 mph N6.9 kmh N 9.6 mph15.4 kmh 30.09 in1019.0 mb 0.00 in0.0 mm 0.00 in/hr0.0 mm/hr 0.00 in0.0 mm
01:20 PM 71.3°F21.8°C 37.4°F3.0°C 29% 2.1 mph ESE3.4 kmh ESE 9.6 mph15.4 kmh 30.09 in1019.0 mb 0.00 in0.0 mm 0.00 in/hr0.0 mm/hr 0.00 in0.0 mm
01:25 PM 71.6°F22.0°C 38.7°F3.7°C 30% 2.4 mph E3.9 kmh E 5.4 mph8.7 kmh 30.09 in1019.0 mb 0.00 in0.0 mm 0.00 in/hr0.0 mm/hr 0.00 in0.0 mm
01:30 PM 72.0°F22.2°C 39.0°F3.9°C 30% 2.1 mph ENE3.4 kmh ENE 5.4 mph8.7 kmh 30.09 in1019.0 mb 0.00 in0.0 mm 0.00 in/hr0.0 mm/hr 0.00 in0.0 mm
01:35 PM 72.4°F22.4°C 38.3°F3.5°C 29% 1.7 mph ENE2.7 kmh ENE 3.6 mph5.8 kmh 30.08 in1018.6 mb 0.00 in0.0 mm 0.00 in/hr0.0 mm/hr 0.00 in0.0 mm
01:40 PM 72.5°F22.5°C 38.4°F3.6°C 29% 1.9 mph WSW3.1 kmh WSW 2.9 mph4.7 kmh 30.08 in1018.6 mb 0.00 in0.0 mm 0.00 in/hr0.0 mm/hr 0.00 in0.0 mm
01:45 PM 73.1°F22.8°C 38.9°F3.8°C 29% 2.6 mph N4.2 kmh N 3.6 mph5.8 kmh 30.08 in1018.6 mb 0.00 in0.0 mm 0.00 in/hr0.0 mm/hr 0.00 in0.0 mm
01:50 PM 72.9°F22.7°C 38.7°F3.7°C 29% 2.7 mph ENE4.3 kmh ENE 6.3 mph10.1 kmh 30.08 in1018.6 mb 0.00 in0.0 mm 0.00 in/hr0.0 mm/hr 0.00 in0.0 mm
01:55 PM 72.9°F22.7°C 38.7°F3.7°C 29% 1.1 mph NW1.8 kmh NW 6.3 mph10.1 kmh 30.07 in1018.3 mb 0.00 in0.0 mm 0.00 in/hr0.0 mm/hr 0.00 in0.0 mm
02:00 PM 73.1°F22.8°C 37.8°F3.2°C 28% 4.9 mph NNE7.9 kmh NNE 5.8 mph9.3 kmh 30.07 in1018.3 mb 0.00 in0.0 mm 0.00 in/hr0.0 mm/hr 0.00 in0.0 mm
02:05 PM 73.1°F22.8°C 38.9°F3.8°C 29% 3.0 mph NNE4.8 kmh NNE 5.8 mph9.3 kmh 30.07 in1018.3 mb 0.00 in0.0 mm 0.00 in/hr0.0 mm/hr 0.00 in0.0 mm
02:10 PM 73.6°F23.1°C 39.3°F4.1°C 29% 0.8 mph NNW1.3 kmh NNW 5.1 mph8.2 kmh 30.06 in1017.9 mb 0.00 in0.0 mm 0.00 in/hr0.0 mm/hr 0.00 in0.0 mm
02:15 PM 74.3°F23.5°C 38.9°F3.8°C 28% 3.3 mph NE5.3 kmh NE 5.1 mph8.2 kmh 30.06 in1017.9 mb 0.00 in0.0 mm 0.00 in/hr0.0 mm/hr 0.00 in0.0 mm
02:20 PM 74.7°F23.7°C 39.3°F4.1°C 28% 3.0 mph NNE4.8 kmh NNE 5.1 mph8.2 kmh 30.06 in1017.9 mb 0.00 in0.0 mm 0.00 in/hr0.0 mm/hr 0.00 in0.0 mm
02:25 PM 74.5°F23.6°C 38.1°F3.4°C 27% 2.7 mph NE4.3 kmh NE 6.3 mph10.1 kmh 30.06 in1017.9 mb 0.00 in0.0 mm 0.00 in/hr0.0 mm/hr 0.00 in0.0 mm
02:30 PM 74.5°F23.6°C 39.1°F3.9°C 28% 4.2 mph E6.8 kmh E 6.3 mph10.1 kmh 30.05 in1017.6 mb 0.00 in0.0 mm 0.00 in/hr0.0 mm/hr 0.00 in0.0 mm
02:34 PM 74.5°F23.6°C 37.1°F2.8°C 26% 4.4 mph SE7.1 kmh SE 6.3 mph10.1 kmh 30.05 in1017.6 mb 0.00 in0.0 mm 0.00 in/hr0.0 mm/hr 0.00 in0.0 mm
02:39 PM 74.5°F23.6°C 39.1°F3.9°C 28% 3.0 mph NNE4.8 kmh NNE 6.3 mph10.1 kmh 30.05 in1017.6 mb 0.00 in0.0 mm 0.00 in/hr0.0 mm/hr 0.00 in0.0 mm
02:44 PM 74.9°F23.8°C 39.4°F4.1°C 28% 2.1 mph ENE3.4 kmh ENE 5.4 mph8.7 kmh 30.05 in1017.6 mb 0.00 in0.0 mm 0.00 in/hr0.0 mm/hr 0.00 in0.0 mm
02:49 PM 74.9°F23.8°C 38.3°F3.5°C 27% 1.8 mph NE2.9 kmh NE 4.7 mph7.6 kmh 30.05 in1017.6 mb 0.00 in0.0 mm 0.00 in/hr0.0 mm/hr 0.00 in0.0 mm
02:54 PM 75.2°F24.0°C 39.7°F4.3°C 28% 1.0 mph N1.6 kmh N 4.7 mph7.6 kmh 30.05 in1017.6 mb 0.00 in0.0 mm 0.00 in/hr0.0 mm/hr 0.00 in0.0 mm
02:59 PM 75.4°F24.1°C 37.8°F3.2°C 26% 2.0 mph E3.2 kmh E 4.7 mph7.6 kmh 30.05 in1017.6 mb 0.00 in0.0 mm 0.00 in/hr0.0 mm/hr 0.00 in0.0 mm
03:04 PM 75.2°F24.0°C 39.7°F4.3°C 28% 3.0 mph NE4.8 kmh NE 6.0 mph9.7 kmh 30.05 in1017.6 mb 0.00 in0.0 mm 0.00 in/hr0.0 mm/hr 0.00 in0.0 mm
03:09 PM 75.1°F23.9°C 38.5°F3.6°C 27% 2.9 mph ESE4.7 kmh ESE 6.0 mph9.7 kmh 30.05 in1017.6 mb 0.00 in0.0 mm 0.00 in/hr0.0 mm/hr 0.00 in0.0 mm
03:14 PM 74.7°F23.7°C 38.3°F3.5°C 27% 3.5 mph SE5.6 kmh SE 5.8 mph9.3 kmh 30.05 in1017.6 mb 0.00 in0.0 mm 0.00 in/hr0.0 mm/hr 0.00 in0.0 mm
03:19 PM 74.3°F23.5°C 38.9°F3.8°C 28% 3.9 mph SE6.3 kmh SE 6.9 mph11.1 kmh 30.05 in1017.6 mb 0.00 in0.0 mm 0.00 in/hr0.0 mm/hr 0.00 in0.0 mm
03:24 PM 74.7°F23.7°C 39.3°F4.1°C 28% 1.0 mph NW1.6 kmh NW 6.9 mph11.1 kmh 30.05 in1017.6 mb 0.00 in0.0 mm 0.00 in/hr0.0 mm/hr 0.00 in0.0 mm
03:29 PM 75.2°F24.0°C 37.6°F3.1°C 26% 3.9 mph NE6.3 kmh NE 5.4 mph8.7 kmh 30.04 in1017.3 mb 0.00 in0.0 mm 0.00 in/hr0.0 mm/hr 0.00 in0.0 mm
03:34 PM 75.4°F24.1°C 37.8°F3.2°C 26% 1.4 mph WSW2.3 kmh WSW 5.4 mph8.7 kmh 30.04 in1017.3 mb 0.00 in0.0 mm 0.00 in/hr0.0 mm/hr 0.00 in0.0 mm
03:39 PM 75.2°F24.0°C 37.6°F3.1°C 26% 2.3 mph NE3.7 kmh NE 5.1 mph8.2 kmh 30.04 in1017.3 mb 0.00 in0.0 mm 0.00 in/hr0.0 mm/hr 0.00 in0.0 mm
03:44 PM 75.1°F23.9°C 39.5°F4.2°C 28% 3.5 mph ENE5.6 kmh ENE 4.9 mph7.9 kmh 30.04 in1017.3 mb 0.00 in0.0 mm 0.00 in/hr0.0 mm/hr 0.00 in0.0 mm
03:49 PM 75.2°F24.0°C 37.6°F3.1°C 26% 3.0 mph NE4.8 kmh NE 6.3 mph10.1 kmh 30.04 in1017.3 mb 0.00 in0.0 mm 0.00 in/hr0.0 mm/hr 0.00 in0.0 mm
03:54 PM 75.1°F23.9°C 39.5°F4.2°C 28% 1.5 mph N2.4 kmh N 6.3 mph10.1 kmh 30.04 in1017.3 mb 0.00 in0.0 mm 0.00 in/hr0.0 mm/hr 0.00 in0.0 mm
03:59 PM 75.1°F23.9°C 39.5°F4.2°C 28% 2.5 mph E4.0 kmh E 6.3 mph10.1 kmh 30.04 in1017.3 mb 0.00 in0.0 mm 0.00 in/hr0.0 mm/hr 0.00 in0.0 mm
04:04 PM 74.5°F23.6°C 39.1°F3.9°C 28% 2.6 mph NNW4.2 kmh NNW 6.3 mph10.1 kmh 30.04 in1017.3 mb 0.00 in0.0 mm 0.00 in/hr0.0 mm/hr 0.00 in0.0 mm
04:09 PM 74.2°F23.4°C 38.8°F3.8°C 28% 6.2 mph N10.0 kmh N 7.8 mph12.6 kmh 30.04 in1017.3 mb 0.00 in0.0 mm 0.00 in/hr0.0 mm/hr 0.00 in0.0 mm
04:14 PM 73.4°F23.0°C 38.2°F3.4°C 28% 1.9 mph NNW3.1 kmh NNW 7.8 mph12.6 kmh 30.04 in1017.3 mb 0.00 in0.0 mm 0.00 in/hr0.0 mm/hr 0.00 in0.0 mm
04:19 PM 73.4°F23.0°C 38.2°F3.4°C 28% 4.5 mph N7.2 kmh N 6.3 mph10.1 kmh 30.04 in1017.3 mb 0.00 in0.0 mm 0.00 in/hr0.0 mm/hr 0.00 in0.0 mm
04:24 PM 73.3°F22.9°C 38.0°F3.3°C 28% 5.2 mph N8.4 kmh N 6.5 mph10.5 kmh 30.04 in1017.3 mb 0.00 in0.0 mm 0.00 in/hr0.0 mm/hr 0.00 in0.0 mm
04:29 PM 72.9°F22.7°C 37.7°F3.2°C 28% 4.8 mph N7.7 kmh N 6.5 mph10.5 kmh 30.03 in1016.9 mb 0.00 in0.0 mm 0.00 in/hr0.0 mm/hr 0.00 in0.0 mm
04:34 PM 72.9°F22.7°C 38.7°F3.7°C 29% 4.0 mph N6.4 kmh N 5.8 mph9.3 kmh 30.04 in1017.3 mb 0.00 in0.0 mm 0.00 in/hr0.0 mm/hr 0.00 in0.0 mm
04:39 PM 72.7°F22.6°C 38.5°F3.6°C 29% 2.7 mph N4.3 kmh N 4.7 mph7.6 kmh 30.04 in1017.3 mb 0.00 in0.0 mm 0.00 in/hr0.0 mm/hr 0.00 in0.0 mm
04:44 PM 72.5°F22.5°C 38.4°F3.6°C 29% 3.1 mph N5.0 kmh N 5.1 mph8.2 kmh 30.04 in1017.3 mb 0.00 in0.0 mm 0.00 in/hr0.0 mm/hr 0.00 in0.0 mm
04:49 PM 72.0°F22.2°C 38.0°F3.3°C 29% 3.9 mph N6.3 kmh N 5.1 mph8.2 kmh 30.03 in1016.9 mb 0.00 in0.0 mm 0.00 in/hr0.0 mm/hr 0.00 in0.0 mm
04:54 PM 71.3°F21.8°C 37.4°F3.0°C 29% 3.8 mph N6.1 kmh N 5.6 mph9.0 kmh 30.04 in1017.3 mb 0.00 in0.0 mm 0.00 in/hr0.0 mm/hr 0.00 in0.0 mm
04:59 PM 70.7°F21.5°C 37.9°F3.3°C 30% 4.2 mph N6.8 kmh N 6.0 mph9.7 kmh 30.04 in1017.3 mb 0.00 in0.0 mm 0.00 in/hr0.0 mm/hr 0.00 in0.0 mm
05:04 PM 70.2°F21.2°C 37.5°F3.1°C 30% 4.7 mph 7.6 kmh 6.3 mph10.1 kmh 30.04 in1017.3 mb 0.00 in0.0 mm 0.00 in/hr0.0 mm/hr 0.00 in0.0 mm
05:09 PM 69.5°F20.8°C 37.5°F3.1°C 31% 3.1 mph N5.0 kmh N 6.3 mph10.1 kmh 30.04 in1017.3 mb 0.00 in0.0 mm 0.00 in/hr0.0 mm/hr 0.00 in0.0 mm
05:15 PM 68.9°F20.5°C 37.7°F3.2°C 32% 4.2 mph N6.8 kmh N 6.3 mph10.1 kmh 30.04 in1017.3 mb 0.00 in0.0 mm 0.00 in/hr0.0 mm/hr 0.00 in0.0 mm
05:20 PM 68.6°F20.3°C 38.9°F3.8°C 34% 5.0 mph N8.0 kmh N 5.8 mph9.3 kmh 30.03 in1016.9 mb 0.00 in0.0 mm 0.00 in/hr0.0 mm/hr 0.00 in0.0 mm
05:25 PM 68.4°F20.2°C 38.7°F3.7°C 34% 3.8 mph N6.1 kmh N 5.8 mph9.3 kmh 30.03 in1016.9 mb 0.00 in0.0 mm 0.00 in/hr0.0 mm/hr 0.00 in0.0 mm
05:30 PM 68.2°F20.1°C 38.6°F3.7°C 34% 3.4 mph NNW5.5 kmh NNW 4.9 mph7.9 kmh 30.03 in1016.9 mb 0.00 in0.0 mm 0.00 in/hr0.0 mm/hr 0.00 in0.0 mm
05:35 PM 68.0°F20.0°C 39.2°F4.0°C 35% 3.5 mph NNW5.6 kmh NNW 4.9 mph7.9 kmh 30.03 in1016.9 mb 0.00 in0.0 mm 0.00 in/hr0.0 mm/hr 0.00 in0.0 mm
05:40 PM 67.7°F19.8°C 38.9°F3.8°C 35% 3.6 mph NNW5.8 kmh NNW 5.4 mph8.7 kmh 30.03 in1016.9 mb 0.00 in0.0 mm 0.00 in/hr0.0 mm/hr 0.00 in0.0 mm
05:45 PM 67.1°F19.5°C 39.2°F4.0°C 36% 1.8 mph NW2.9 kmh NW 5.4 mph8.7 kmh 30.03 in1016.9 mb 0.00 in0.0 mm 0.00 in/hr0.0 mm/hr 0.00 in0.0 mm
05:50 PM 67.0°F19.4°C 39.0°F3.9°C 36% 1.4 mph NW2.3 kmh NW 4.3 mph6.9 kmh 30.03 in1016.9 mb 0.00 in0.0 mm 0.00 in/hr0.0 mm/hr 0.00 in0.0 mm
05:55 PM 66.6°F19.2°C 38.6°F3.7°C 36% 1.7 mph NW2.7 kmh NW 4.0 mph6.4 kmh 30.03 in1016.9 mb 0.00 in0.0 mm 0.00 in/hr0.0 mm/hr 0.00 in0.0 mm
06:00 PM 66.2°F19.0°C 39.1°F3.9°C 37% 1.6 mph NNW2.6 kmh NNW 4.0 mph6.4 kmh 30.03 in1016.9 mb 0.00 in0.0 mm 0.00 in/hr0.0 mm/hr 0.00 in0.0 mm
06:05 PM 65.9°F18.8°C 38.7°F3.7°C 37% 1.5 mph N2.4 kmh N 3.8 mph6.1 kmh 30.03 in1016.9 mb 0.00 in0.0 mm 0.00 in/hr0.0 mm/hr 0.00 in0.0 mm
06:10 PM 65.5°F18.6°C 38.4°F3.6°C 37% 3.1 mph NNW5.0 kmh NNW 3.8 mph6.1 kmh 30.03 in1016.9 mb 0.00 in0.0 mm 0.00 in/hr0.0 mm/hr 0.00 in0.0 mm
06:15 PM 65.2°F18.4°C 38.8°F3.8°C 38% 0.9 mph NNW1.4 kmh NNW 3.8 mph6.1 kmh 30.03 in1016.9 mb 0.00 in0.0 mm 0.00 in/hr0.0 mm/hr 0.00 in0.0 mm
06:20 PM 65.2°F18.4°C 39.5°F4.2°C 39% 1.3 mph NW2.1 kmh NW 3.4 mph5.5 kmh 30.03 in1016.9 mb 0.00 in0.0 mm 0.00 in/hr0.0 mm/hr 0.00 in0.0 mm
06:25 PM 64.6°F18.1°C 39.1°F3.9°C 39% 0.9 mph NNW1.4 kmh NNW 2.5 mph4.0 kmh 30.03 in1016.9 mb 0.00 in0.0 mm 0.00 in/hr0.0 mm/hr 0.00 in0.0 mm
06:30 PM 64.4°F18.0°C 39.6°F4.2°C 40% 1.8 mph NNW2.9 kmh NNW 2.7 mph4.3 kmh 30.03 in1016.9 mb 0.00 in0.0 mm 0.00 in/hr0.0 mm/hr 0.00 in0.0 mm
06:34 PM 64.1°F17.8°C 39.2°F4.0°C 40% 1.2 mph NNW1.9 kmh NNW 2.7 mph4.3 kmh 30.03 in1016.9 mb 0.00 in0.0 mm 0.00 in/hr0.0 mm/hr 0.00 in0.0 mm
06:39 PM 63.9°F17.7°C 39.2°F4.0°C 40% 0.6 mph NW1.0 kmh NW 2.5 mph4.0 kmh 30.03 in1016.9 mb 0.00 in0.0 mm 0.00 in/hr0.0 mm/hr 0.00 in0.0 mm
06:44 PM 63.5°F17.5°C 39.3°F4.1°C 41% 0.5 mph NW0.8 kmh NW 1.1 mph1.8 kmh 30.03 in1016.9 mb 0.00 in0.0 mm 0.00 in/hr0.0 mm/hr 0.00 in0.0 mm
06:49 PM 63.2°F17.3°C 39.6°F4.2°C 42% 0.4 mph NW0.6 kmh NW 1.1 mph1.8 kmh 30.02 in1016.6 mb 0.00 in0.0 mm 0.00 in/hr0.0 mm/hr 0.00 in0.0 mm
06:54 PM 62.8°F17.1°C 39.9°F4.4°C 43% 0.3 mph NW0.5 kmh NW 1.1 mph1.8 kmh 30.03 in1016.9 mb 0.00 in0.0 mm 0.00 in/hr0.0 mm/hr 0.00 in0.0 mm
06:59 PM 62.5°F16.9°C 39.5°F4.2°C 43% 0.5 mph WNW0.8 kmh WNW 1.6 mph2.6 kmh 30.03 in1016.9 mb 0.00 in0.0 mm 0.00 in/hr0.0 mm/hr 0.00 in0.0 mm
07:04 PM 62.3°F16.8°C 40.0°F4.4°C 44% 1.3 mph WNW2.1 kmh WNW 1.8 mph2.9 kmh 30.03 in1016.9 mb 0.00 in0.0 mm 0.00 in/hr0.0 mm/hr 0.00 in0.0 mm
07:09 PM 61.9°F16.6°C 39.6°F4.2°C 44% 1.0 mph W1.6 kmh W 2.5 mph4.0 kmh 30.03 in1016.9 mb 0.00 in0.0 mm 0.00 in/hr0.0 mm/hr 0.00 in0.0 mm
07:14 PM 61.6°F16.4°C 39.9°F4.4°C 45% 0.8 mph WNW1.3 kmh WNW 2.5 mph4.0 kmh 30.03 in1016.9 mb 0.00 in0.0 mm 0.00 in/hr0.0 mm/hr 0.00 in0.0 mm
07:19 PM 61.4°F16.3°C 39.7°F4.3°C 45% 1.3 mph W2.1 kmh W 1.8 mph2.9 kmh 30.03 in1016.9 mb 0.00 in0.0 mm 0.00 in/hr0.0 mm/hr 0.00 in0.0 mm
07:24 PM 61.0°F16.1°C 39.4°F4.1°C 45% 0.3 mph W0.5 kmh W 1.8 mph2.9 kmh 30.03 in1016.9 mb 0.00 in0.0 mm 0.00 in/hr0.0 mm/hr 0.00 in0.0 mm
07:29 PM 60.8°F16.0°C 39.8°F4.3°C 46% 0.8 mph W1.3 kmh W 1.8 mph2.9 kmh 30.03 in1016.9 mb 0.00 in0.0 mm 0.00 in/hr0.0 mm/hr 0.00 in0.0 mm
07:34 PM 60.5°F15.8°C 39.5°F4.2°C 46% 1.1 mph W1.8 kmh W 1.6 mph2.6 kmh 30.03 in1016.9 mb 0.00 in0.0 mm 0.00 in/hr0.0 mm/hr 0.00 in0.0 mm
07:39 PM 60.1°F15.6°C 39.2°F4.0°C 46% 0.6 mph W1.0 kmh W 1.3 mph2.1 kmh 30.03 in1016.9 mb 0.00 in0.0 mm 0.00 in/hr0.0 mm/hr 0.00 in0.0 mm
07:44 PM 59.9°F15.5°C 39.0°F3.9°C 46% 1.0 mph WSW1.6 kmh WSW 1.6 mph2.6 kmh 30.04 in1017.3 mb 0.00 in0.0 mm 0.00 in/hr0.0 mm/hr 0.00 in0.0 mm
07:49 PM 59.6°F15.3°C 38.7°F3.7°C 46% 1.5 mph SW2.4 kmh SW 1.8 mph2.9 kmh 30.04 in1017.3 mb 0.00 in0.0 mm 0.00 in/hr0.0 mm/hr 0.00 in0.0 mm
07:54 PM 59.4°F15.2°C 39.7°F4.3°C 48% 0.9 mph SW1.4 kmh SW 1.8 mph2.9 kmh 30.04 in1017.3 mb 0.00 in0.0 mm 0.00 in/hr0.0 mm/hr 0.00 in0.0 mm
07:59 PM 58.9°F14.9°C 39.2°F4.0°C 48% 1.3 mph SW2.1 kmh SW 1.8 mph2.9 kmh 30.05 in1017.6 mb 0.00 in0.0 mm 0.00 in/hr0.0 mm/hr 0.00 in0.0 mm
08:04 PM 58.5°F14.7°C 38.9°F3.8°C 48% 1.6 mph SW2.6 kmh SW 1.8 mph2.9 kmh 30.05 in1017.6 mb 0.00 in0.0 mm 0.00 in/hr0.0 mm/hr 0.00 in0.0 mm
08:09 PM 58.0°F14.4°C 39.0°F3.9°C 49% 1.3 mph SW2.1 kmh SW 1.8 mph2.9 kmh 30.05 in1017.6 mb 0.00 in0.0 mm 0.00 in/hr0.0 mm/hr 0.00 in0.0 mm
08:14 PM 57.6°F14.2°C 39.3°F4.1°C 50% 1.1 mph SW1.8 kmh SW 1.8 mph2.9 kmh 30.05 in1017.6 mb 0.00 in0.0 mm 0.00 in/hr0.0 mm/hr 0.00 in0.0 mm
08:19 PM 57.2°F14.0°C 38.9°F3.8°C 50% 1.6 mph WSW2.6 kmh WSW 2.2 mph3.5 kmh 30.05 in1017.6 mb 0.00 in0.0 mm 0.00 in/hr0.0 mm/hr 0.00 in0.0 mm
08:24 PM 56.9°F13.8°C 39.0°F3.9°C 51% 1.2 mph SW1.9 kmh SW 2.2 mph3.5 kmh 30.05 in1017.6 mb 0.00 in0.0 mm 0.00 in/hr0.0 mm/hr 0.00 in0.0 mm
08:29 PM 56.7°F13.7°C 39.2°F4.0°C 52% 0.9 mph SW1.4 kmh SW 1.8 mph2.9 kmh 30.05 in1017.6 mb 0.00 in0.0 mm 0.00 in/hr0.0 mm/hr 0.00 in0.0 mm
08:34 PM 56.5°F13.6°C 39.1°F3.9°C 52% 0.8 mph SW1.3 kmh SW 1.6 mph2.6 kmh 30.05 in1017.6 mb 0.00 in0.0 mm 0.00 in/hr0.0 mm/hr 0.00 in0.0 mm
08:39 PM 56.2°F13.4°C 39.7°F4.3°C 54% 1.1 mph SW1.8 kmh SW 1.3 mph2.1 kmh 30.05 in1017.6 mb 0.00 in0.0 mm 0.00 in/hr0.0 mm/hr 0.00 in0.0 mm
08:44 PM 56.0°F13.3°C 40.4°F4.7°C 56% 1.7 mph SW2.7 kmh SW 2.0 mph3.2 kmh 30.05 in1017.6 mb 0.00 in0.0 mm 0.00 in/hr0.0 mm/hr 0.00 in0.0 mm
08:49 PM 55.6°F13.1°C 39.6°F4.2°C 55% 1.6 mph SW2.6 kmh SW 2.0 mph3.2 kmh 30.05 in1017.6 mb 0.00 in0.0 mm 0.00 in/hr0.0 mm/hr 0.00 in0.0 mm
08:54 PM 55.3°F12.9°C 38.8°F3.8°C 54% 0.6 mph SSW1.0 kmh SSW 2.0 mph3.2 kmh 30.05 in1017.6 mb 0.00 in0.0 mm 0.00 in/hr0.0 mm/hr 0.00 in0.0 mm
08:59 PM 55.1°F12.8°C 38.6°F3.7°C 54% 0.7 mph S1.1 kmh S 2.0 mph3.2 kmh 30.05 in1017.6 mb 0.00 in0.0 mm 0.00 in/hr0.0 mm/hr 0.00 in0.0 mm
09:04 PM 54.7°F12.6°C 38.8°F3.8°C 55% 1.7 mph SW2.7 kmh SW 2.0 mph3.2 kmh 30.05 in1017.6 mb 0.00 in0.0 mm 0.00 in/hr0.0 mm/hr 0.00 in0.0 mm
09:09 PM 54.5°F12.5°C 38.2°F3.4°C 54% 1.3 mph SW2.1 kmh SW 2.2 mph3.5 kmh 30.05 in1017.6 mb 0.00 in0.0 mm 0.00 in/hr0.0 mm/hr 0.00 in0.0 mm
09:14 PM 54.4°F12.4°C 38.4°F3.6°C 55% 0.9 mph SW1.4 kmh SW 2.2 mph3.5 kmh 30.05 in1017.6 mb 0.00 in0.0 mm 0.00 in/hr0.0 mm/hr 0.00 in0.0 mm
09:19 PM 54.0°F12.2°C 38.2°F3.4°C 55% 1.2 mph SW1.9 kmh SW 1.8 mph2.9 kmh 30.05 in1017.6 mb 0.00 in0.0 mm 0.00 in/hr0.0 mm/hr 0.00 in0.0 mm
09:24 PM 53.8°F12.1°C 38.0°F3.3°C 55% 1.4 mph WSW2.3 kmh WSW 1.8 mph2.9 kmh 30.05 in1017.6 mb 0.00 in0.0 mm 0.00 in/hr0.0 mm/hr 0.00 in0.0 mm
09:29 PM 53.8°F12.1°C 38.0°F3.3°C 55% 2.2 mph WSW3.5 kmh WSW 2.5 mph4.0 kmh 30.05 in1017.6 mb 0.00 in0.0 mm 0.00 in/hr0.0 mm/hr 0.00 in0.0 mm
09:35 PM 53.8°F12.1°C 38.4°F3.6°C 56% 1.3 mph WSW2.1 kmh WSW 2.5 mph4.0 kmh 30.05 in1017.6 mb 0.00 in0.0 mm 0.00 in/hr0.0 mm/hr 0.00 in0.0 mm
09:40 PM 53.8°F12.1°C 38.0°F3.3°C 55% 0.6 mph WSW1.0 kmh WSW 2.5 mph4.0 kmh 30.05 in1017.6 mb 0.00 in0.0 mm 0.00 in/hr0.0 mm/hr 0.00 in0.0 mm
09:45 PM 53.8°F12.1°C 38.0°F3.3°C 55% 0.8 mph SW1.3 kmh SW 1.6 mph2.6 kmh 30.05 in1017.6 mb 0.00 in0.0 mm 0.00 in/hr0.0 mm/hr 0.00 in0.0 mm
09:50 PM 53.8°F12.1°C 38.4°F3.6°C 56% 0.4 mph SW0.6 kmh SW 1.1 mph1.8 kmh 30.05 in1017.6 mb 0.00 in0.0 mm 0.00 in/hr0.0 mm/hr 0.00 in0.0 mm
09:55 PM 53.6°F12.0°C 38.3°F3.5°C 56% 0.9 mph WSW1.4 kmh WSW 1.1 mph1.8 kmh 30.05 in1017.6 mb 0.00 in0.0 mm 0.00 in/hr0.0 mm/hr 0.00 in0.0 mm
10:00 PM 53.3°F11.8°C 38.4°F3.6°C 57% 1.1 mph W1.8 kmh W 1.1 mph1.8 kmh 30.05 in1017.6 mb 0.00 in0.0 mm 0.00 in/hr0.0 mm/hr 0.00 in0.0 mm
10:05 PM 52.9°F11.6°C 38.1°F3.4°C 57% 1.2 mph WSW1.9 kmh WSW 1.8 mph2.9 kmh 30.05 in1017.6 mb 0.00 in0.0 mm 0.00 in/hr0.0 mm/hr 0.00 in0.0 mm
10:10 PM 52.9°F11.6°C 38.1°F3.4°C 57% 1.8 mph WSW2.9 kmh WSW 2.2 mph3.5 kmh 30.05 in1017.6 mb 0.00 in0.0 mm 0.00 in/hr0.0 mm/hr 0.00 in0.0 mm
10:15 PM 52.9°F11.6°C 38.1°F3.4°C 57% 1.5 mph W2.4 kmh W 2.2 mph3.5 kmh 30.05 in1017.6 mb 0.00 in0.0 mm 0.00 in/hr0.0 mm/hr 0.00 in0.0 mm
10:21 PM 52.7°F11.5°C 37.9°F3.3°C 57% 1.3 mph WSW2.1 kmh WSW 2.0 mph3.2 kmh 30.05 in1017.6 mb 0.00 in0.0 mm 0.00 in/hr0.0 mm/hr 0.00 in0.0 mm
10:26 PM 52.9°F11.6°C 38.5°F3.6°C 58% 0.7 mph NW1.1 kmh NW 2.0 mph3.2 kmh 30.05 in1017.6 mb 0.00 in0.0 mm 0.00 in/hr0.0 mm/hr 0.00 in0.0 mm
10:31 PM 52.9°F11.6°C 38.5°F3.6°C 58% 1.2 mph W1.9 kmh W 2.5 mph4.0 kmh 30.05 in1017.6 mb 0.00 in0.0 mm 0.00 in/hr0.0 mm/hr 0.00 in0.0 mm
10:34 PM 53.3°F11.8°C 38.4°F3.6°C 57% 0.7 mph NW1.1 kmh NW 2.5 mph4.0 kmh 30.05 in1017.6 mb 0.00 in0.0 mm 0.00 in/hr0.0 mm/hr 0.00 in0.0 mm
10:39 PM 53.3°F11.8°C 38.9°F3.8°C 58% 2.6 mph W4.2 kmh W 3.4 mph5.5 kmh 30.05 in1017.6 mb 0.00 in0.0 mm 0.00 in/hr0.0 mm/hr 0.00 in0.0 mm
10:44 PM 53.6°F12.0°C 38.7°F3.7°C 57% 2.3 mph W3.7 kmh W 3.4 mph5.5 kmh 30.05 in1017.6 mb 0.00 in0.0 mm 0.00 in/hr0.0 mm/hr 0.00 in0.0 mm
10:49 PM 53.8°F12.1°C 38.9°F3.8°C 57% 2.3 mph W3.7 kmh W 3.4 mph5.5 kmh 30.05 in1017.6 mb 0.00 in0.0 mm 0.00 in/hr0.0 mm/hr 0.00 in0.0 mm
10:55 PM 53.8°F12.1°C 38.4°F3.6°C 56% 1.3 mph W2.1 kmh W 2.7 mph4.3 kmh 30.05 in1017.6 mb 0.00 in0.0 mm 0.00 in/hr0.0 mm/hr 0.00 in0.0 mm
11:01 PM 53.8°F12.1°C 38.4°F3.6°C 56% 0.8 mph NW1.3 kmh NW 2.5 mph4.0 kmh 30.05 in1017.6 mb 0.00 in0.0 mm 0.00 in/hr0.0 mm/hr 0.00 in0.0 mm
11:07 PM 53.6°F12.0°C 38.3°F3.5°C 56% 1.4 mph W2.3 kmh W 2.0 mph3.2 kmh 30.05 in1017.6 mb 0.00 in0.0 mm 0.00 in/hr0.0 mm/hr 0.00 in0.0 mm
11:12 PM 53.6°F12.0°C 37.8°F3.2°C 55% 1.4 mph WSW2.3 kmh WSW 2.0 mph3.2 kmh 30.05 in1017.6 mb 0.00 in0.0 mm 0.00 in/hr0.0 mm/hr 0.00 in0.0 mm
11:18 PM 53.3°F11.8°C 37.9°F3.3°C 56% 1.2 mph SW1.9 kmh SW 1.8 mph2.9 kmh 30.05 in1017.6 mb 0.00 in0.0 mm 0.00 in/hr0.0 mm/hr 0.00 in0.0 mm
11:23 PM 52.9°F11.6°C 37.6°F3.1°C 56% 1.0 mph SW1.6 kmh SW 1.8 mph2.9 kmh 30.05 in1017.6 mb 0.00 in0.0 mm 0.00 in/hr0.0 mm/hr 0.00 in0.0 mm
11:28 PM 52.4°F11.3°C 37.5°F3.1°C 57% 0.3 mph WSW0.5 kmh WSW 1.6 mph2.6 kmh 30.05 in1017.6 mb 0.00 in0.0 mm 0.00 in/hr0.0 mm/hr 0.00 in0.0 mm
11:33 PM 51.8°F11.0°C 37.9°F3.3°C 59% Calm Calm 1.1 mph1.8 kmh 30.05 in1017.6 mb 0.00 in0.0 mm 0.00 in/hr0.0 mm/hr 0.00 in0.0 mm
11:39 PM 51.5°F10.8°C 37.1°F2.8°C 58% 0.4 mph SSW0.6 kmh SSW 0.4 mph0.6 kmh 30.05 in1017.6 mb 0.00 in0.0 mm 0.00 in/hr0.0 mm/hr 0.00 in0.0 mm
11:46 PM 51.1°F10.6°C 36.8°F2.7°C 58% Calm Calm 0.4 mph0.6 kmh 30.05 in1017.6 mb 0.00 in0.0 mm 0.00 in/hr0.0 mm/hr 0.00 in0.0 mm
11:51 PM 50.8°F10.4°C 36.9°F2.7°C 59% Calm Calm -- 30.05 in1017.6 mb 0.00 in0.0 mm 0.00 in/hr0.0 mm/hr 0.00 in0.0 mm
11:56 PM 50.6°F10.3°C 36.7°F2.6°C 59% 0.3 mph W0.5 kmh W 0.4 mph0.6 kmh 30.05 in1017.6 mb 0.00 in0.0 mm 0.00 in/hr0.0 mm/hr 0.00 in0.0 mm